Time;durP1;ratioP1;P1;durP2;ratioP2;P2;SDS_P1;SDS_P2;PMS_P1;PMS_P2;Temp;Humidity;BMP_temperature;BMP_pressure;BME280_temperature;BME280_humidity;BME280_pressure;Samples;Min_cycle;Max_cycle;Signal;HPM_P1;HPM_P2
2023/10/06 06:38:18;;;;;;;12.00;2.33;;;16.60;69.70;;;;;;5043123;28;20052;-88
2023/10/06 06:40:46;;;;;;;12.07;2.40;;;16.70;70.70;;;;;;5012961;28;20073;-78
2023/10/06 06:43:13;;;;;;;17.45;2.70;;;16.80;70.30;;;;;;5011788;28;20116;-78
2023/10/06 06:45:40;;;;;;;20.90;2.50;;;16.80;70.30;;;;;;5009999;28;20056;-78
2023/10/06 06:48:19;;;;;;;18.65;2.50;;;16.80;70.30;;;;;;5012244;28;20116;-79
2023/10/06 06:50:48;;;;;;;12.50;2.42;;;16.80;68.60;;;;;;5001303;28;20045;-81
2023/10/06 06:53:18;;;;;;;16.02;2.67;;;16.80;68.50;;;;;;5014602;28;20113;-79
2023/10/06 06:55:46;;;;;;;19.38;2.80;;;16.80;68.70;;;;;;5031187;28;20041;-77
2023/10/06 06:58:16;;;;;;;9.60;2.63;;;16.80;69.40;;;;;;4996005;28;20092;-76
2023/10/06 07:00:46;;;;;;;14.38;2.67;;;16.80;68.30;;;;;;5013138;28;20487;-76
2023/10/06 07:03:14;;;;;;;12.13;2.50;;;16.80;68.00;;;;;;5013229;28;20605;-77
2023/10/06 07:05:42;;;;;;;14.18;2.78;;;16.80;67.90;;;;;;5018119;28;20032;-78
2023/10/06 07:08:11;;;;;;;10.68;2.40;;;16.80;67.60;;;;;;5052269;28;20080;-77
2023/10/06 07:10:46;;;;;;;15.55;2.55;;;16.90;68.40;;;;;;5034542;28;20037;-75
2023/10/06 07:13:13;;;;;;;15.85;2.58;;;16.90;68.10;;;;;;5053319;28;20124;-76
2023/10/06 07:15:41;;;;;;;9.60;2.28;;;16.80;68.00;;;;;;5051690;28;20438;-76
2023/10/06 07:18:10;;;;;;;16.10;2.40;;;16.90;69.40;;;;;;5023437;28;20026;-75
2023/10/06 07:20:37;;;;;;;13.25;2.40;;;16.90;69.30;;;;;;5018532;28;20029;-75
2023/10/06 07:23:04;;;;;;;11.15;2.72;;;16.80;69.70;;;;;;5046423;28;20120;-76
2023/10/06 07:25:32;;;;;;;14.55;2.83;;;16.80;70.00;;;;;;5029466;28;20437;-76
2023/10/06 07:27:59;;;;;;;16.25;2.83;;;16.80;68.80;;;;;;5016306;28;20072;-75
2023/10/06 07:30:28;;;;;;;17.58;2.72;;;16.80;70.10;;;;;;5017695;28;20043;-78
2023/10/06 07:32:56;;;;;;;20.55;2.83;;;16.80;69.20;;;;;;4999746;28;20048;-79
2023/10/06 07:35:47;;;;;;;13.82;2.60;;;16.80;69.00;;;;;;4997280;28;20124;-85
2023/10/06 07:38:18;;;;;;;16.05;2.80;;;16.80;68.10;;;;;;5027485;28;20147;-81
2023/10/06 07:40:45;;;;;;;11.98;2.28;;;16.80;68.60;;;;;;5035948;28;20074;-82
2023/10/06 07:43:15;;;;;;;8.85;2.05;;;16.80;69.30;;;;;;5036488;28;20525;-81
2023/10/06 07:45:42;;;;;;;15.07;2.58;;;16.70;68.90;;;;;;5036186;28;20036;-83
2023/10/06 07:48:10;;;;;;;13.38;2.58;;;16.70;69.60;;;;;;5032761;28;20084;-74
2023/10/06 07:50:37;;;;;;;12.77;2.70;;;16.70;69.00;;;;;;5069753;28;20033;-73
2023/10/06 07:53:06;;;;;;;10.23;2.00;;;16.70;68.90;;;;;;5069875;28;20041;-73
2023/10/06 07:55:33;;;;;;;10.35;2.25;;;16.70;69.10;;;;;;5069625;28;20044;-74
2023/10/06 07:58:02;;;;;;;10.43;2.60;;;16.70;68.90;;;;;;5068725;28;20119;-74
2023/10/06 08:00:30;;;;;;;11.55;2.30;;;16.70;69.50;;;;;;5051249;28;20041;-74
2023/10/06 08:03:01;;;;;;;12.95;2.38;;;16.70;69.10;;;;;;5052049;28;20126;-73
2023/10/06 08:05:28;;;;;;;16.77;3.10;;;16.70;68.30;;;;;;5052477;28;20108;-76
2023/10/06 08:07:57;;;;;;;12.13;2.13;;;16.70;68.60;;;;;;5050667;28;20053;-73
2023/10/06 08:10:25;;;;;;;17.17;2.78;;;16.70;68.40;;;;;;5051564;28;20453;-78
2023/10/06 08:12:56;;;;;;;17.65;2.80;;;16.70;68.60;;;;;;5035586;28;20040;-78
2023/10/06 08:15:27;;;;;;;14.50;2.35;;;16.80;68.50;;;;;;5036431;28;20071;-75
2023/10/06 08:17:55;;;;;;;18.20;3.35;;;16.70;69.00;;;;;;5030307;28;20044;-76
2023/10/06 08:20:24;;;;;;;15.25;2.58;;;16.70;69.20;;;;;;5033377;28;20043;-75
2023/10/06 08:22:52;;;;;;;12.23;3.42;;;16.70;69.00;;;;;;5035117;28;20036;-73
2023/10/06 08:25:20;;;;;;;13.95;2.60;;;16.70;69.70;;;;;;5016604;28;20043;-77
2023/10/06 08:27:49;;;;;;;11.63;2.70;;;16.60;68.20;;;;;;5051304;28;20040;-80
2023/10/06 08:30:17;;;;;;;15.00;3.08;;;16.60;68.90;;;;;;5019029;28;20032;-86
2023/10/06 08:32:54;;;;;;;14.57;2.67;;;16.60;68.40;;;;;;5051779;28;20041;-77
2023/10/06 17:12:20;;;;;;;17.05;2.72;;;14.00;78.20;;;;;;1423101;26;20044;-69
2023/10/06 17:14:47;;;;;;;14.93;2.75;;;14.10;78.10;;;;;;5054191;28;20120;-69
2023/10/06 17:17:15;;;;;;;16.77;3.47;;;14.10;78.40;;;;;;5072065;28;20033;-69
2023/10/06 17:19:42;;;;;;;11.77;2.80;;;14.10;78.30;;;;;;5074056;28;20089;-69
2023/10/06 17:22:09;;;;;;;14.27;3.60;;;14.10;77.70;;;;;;5075683;28;20029;-69
2023/10/06 17:24:36;;;;;;;18.58;3.10;;;14.10;78.10;;;;;;5076112;28;20403;-69
2023/10/06 17:27:03;;;;;;;13.80;2.80;;;14.10;77.80;;;;;;5075843;28;20040;-69
2023/10/06 17:29:32;;;;;;;17.80;3.10;;;14.10;77.80;;;;;;5056695;28;20036;-69
2023/10/06 17:32:01;;;;;;;13.10;2.28;;;14.00;76.30;;;;;;5075218;28;20063;-69
2023/10/06 17:34:29;;;;;;;16.48;3.17;;;14.10;76.70;;;;;;5075521;28;20028;-69
2023/10/06 17:36:56;;;;;;;12.05;2.35;;;14.00;75.90;;;;;;5074859;28;20569;-69
2023/10/06 17:39:24;;;;;;;11.30;2.63;;;14.00;76.10;;;;;;5075564;28;20033;-69
2023/10/06 17:41:52;;;;;;;14.52;2.95;;;14.00;74.80;;;;;;5072766;28;20033;-70
2023/10/06 17:44:21;;;;;;;14.07;2.45;;;14.00;74.40;;;;;;5075369;28;20021;-70
2023/10/06 17:46:51;;;;;;;18.48;3.05;;;14.10;73.40;;;;;;5075469;28;20118;-70
2023/10/06 17:49:18;;;;;;;13.60;2.60;;;14.00;73.00;;;;;;5075221;28;20402;-69
2023/10/06 17:51:46;;;;;;;12.63;2.97;;;14.10;73.70;;;;;;5074996;28;20040;-69
2023/10/06 17:54:13;;;;;;;13.18;2.90;;;14.10;72.40;;;;;;5073875;28;20036;-70
2023/10/06 17:56:41;;;;;;;12.13;2.95;;;14.10;72.20;;;;;;5072665;28;20033;-69
2023/10/06 17:59:10;;;;;;;12.80;2.60;;;14.10;71.70;;;;;;5074944;28;20116;-69
2023/10/06 18:01:37;;;;;;;11.48;2.10;;;14.10;71.50;;;;;;5075120;28;20064;-69
2023/10/06 18:04:04;;;;;;;10.75;2.42;;;14.10;72.00;;;;;;5075310;28;20032;-70
2023/10/06 18:06:32;;;;;;;11.63;2.42;;;14.10;71.60;;;;;;5074297;28;20040;-69
2023/10/06 18:08:59;;;;;;;12.60;2.17;;;14.10;71.60;;;;;;5075210;28;20045;-69
